Terminal Aerodrome Forecast
Issued by NWS

Home | Current Version | Previous Version | Graphics & Text | Print | Product List | Glossary On
Versions: 1 2 3 4 5 6 7 8 9 10 11 12 13 14 15 16 17 18
000
FTUS43 KMPX 192300
TAFRNH
TAF
KRNH 192326Z 2000/2024 20009KT P6SM SCT050 BKN100
     FM200800 18006KT 6SM BR SCT070 BKN120
     FM201400 19012G19KT P6SM SCT060 BKN200=

USA.gov is the U.S. government's official web portal to all federal, state and local government web resources and services.